Flight Track Log - Related Links

Times and Time Zones

All times are in EDT time to prevent confusion due to time zone crossing. See the N210SY flight status page for this flight to view local times or setup timezone preferences in your user account.

Time Position Orientation Groundspeed Altitude Reporting Facility
EDT Latitude Longitude Course Direction KTS MPH feet Rate Location/Type
Wed 02:55:12 PM 40.0025 -82.4314 228° Southwest 148 170 2,000  Level Indianapolis Center
Wed 02:55:42 PM 39.9886 -82.4517 228° Southwest 125 144 2,300 593 Climbing Indianapolis Center
Wed 02:56:43 PM 39.9614 -82.4839 222° Southwest 131 151 2,900 607 Climbing Indianapolis Center
Wed 02:57:11 PM 39.9503 -82.4969 222° Southwest 128 147 3,200 590 Climbing Indianapolis Center
Wed 02:57:44 PM 39.9364 -82.5139 223° Southwest 129 148 3,500 484 Climbing Indianapolis Center
Wed 02:58:13 PM 39.9242 -82.5294 224° Southwest 129 148 3,700 655 Climbing Indianapolis Center
Wed 02:58:39 PM 39.9117 -82.5439 222° Southwest 129 148 4,100 581 Climbing Indianapolis Center
Wed 02:59:15 PM 39.8975 -82.5592 220° Southwest 127 146 4,300 590 Climbing Indianapolis Center
Wed 02:59:40 PM 39.8844 -82.5736 220° Southwest 124 143 4,700 581 Climbing Indianapolis Center
Wed 03:00:17 PM 39.8714 -82.5897 223° Southwest 125 144 4,900 492 Climbing Indianapolis Center
Wed 03:00:41 PM 39.8597 -82.6033 222° Southwest 124 143 5,200 484 Climbing Indianapolis Center
Wed 03:01:19 PM 39.8453 -82.6219 225° Southwest 127 146 5,400 492 Climbing Indianapolis Center
Wed 03:01:42 PM 39.8322 -82.6383 224° Southwest 129 148 5,700 581 Climbing Indianapolis Center
Wed 03:02:21 PM 39.8194 -82.6522 220° Southwest 125 144 6,000 600 Climbing Indianapolis Center
Wed 03:02:42 PM 39.8050 -82.6706 224° Southwest 132 152 6,300 581 Climbing Indianapolis Center
Wed 03:03:23 PM 39.7922 -82.6872 225° Southwest 132 152 6,600 492 Climbing Indianapolis Center
Wed 03:03:43 PM 39.7797 -82.7031 224° Southwest 130 150 6,800 484 Climbing Indianapolis Center
Wed 03:04:25 PM 39.7617 -82.7247 223° Southwest 130 150 7,100 393 Climbing Indianapolis Center
Wed 03:04:44 PM 39.7525 -82.7353 222° Southwest 129 148 7,200 387 Climbing Indianapolis Center
Wed 03:05:27 PM 39.7342 -82.7556 220° Southwest 129 148 7,500 393 Climbing Indianapolis Center
Wed 03:05:45 PM 39.7256 -82.7650 220° Southwest 131 151 7,600 290 Climbing Indianapolis Center
Wed 03:06:29 PM 39.7053 -82.7872 220° Southwest 133 153 7,800 340 Climbing Indianapolis Center
Wed 03:07:31 PM 39.6764 -82.8189 220° Southwest 135 155 8,200 194 Climbing Indianapolis Center
Wed 03:08:33 PM 39.6444 -82.8561 222° Southwest 147 169 8,200 -48 Level Indianapolis Center
Wed 03:09:35 PM 39.6100 -82.8953 221° Southwest 158 182 8,100  Descending Indianapolis Center
Wed 03:10:37 PM 39.5750 -82.9319 219° Southwest 160 184 8,200 48 Climbing Indianapolis Center
Wed 03:11:39 PM 39.5408 -82.9694 220° Southwest 159 183 8,200 -48 Level Indianapolis Center
Wed 03:12:41 PM 39.4986 -83.0164 221° Southwest 167 192 8,100 -48 Descending Indianapolis Center
Wed 03:13:43 PM 39.4642 -83.0569 222° Southwest 167 192 8,100 48 Level Indianapolis Center
Wed 03:14:45 PM 39.4289 -83.0978 222° Southwest 167 192 8,200  Climbing Indianapolis Center
Wed 03:15:47 PM 39.3956 -83.1372 222° Southwest 164 189 8,100  Descending Indianapolis Center
Wed 03:16:49 PM 39.3614 -83.1764 222° Southwest 162 186 8,200  Climbing Indianapolis Center
Wed 03:17:52 PM 39.3264 -83.2175 222° Southwest 166 191 8,100  Descending Indianapolis Center
Wed 03:18:54 PM 39.2917 -83.2558 221° Southwest 165 190 8,200  Climbing Indianapolis Center
Wed 03:19:56 PM 39.2572 -83.2944 221° Southwest 163 188 8,100  Descending Indianapolis Center
Wed 03:20:58 PM 39.2181 -83.3394 222° Southwest 160 184 8,200  Climbing Indianapolis Center
Wed 03:22:00 PM 39.1844 -83.3775 221° Southwest 160 184 8,100 -48 Descending Indianapolis Center
Wed 03:23:02 PM 39.1506 -83.4167 222° Southwest 162 186 8,100 -48 Level Indianapolis Center
Wed 03:24:04 PM 39.1164 -83.4575 223° Southwest 166 191 8,000  Descending Indianapolis Center
Wed 03:25:06 PM 39.0831 -83.4967 222° Southwest 162 186 8,100 48 Climbing Indianapolis Center
Wed 03:26:08 PM 39.0508 -83.5361 224° Southwest 160 184 8,100  Level Indianapolis Center
Wed 03:27:10 PM 39.0178 -83.5756 223° Southwest 159 183 8,100  Level Indianapolis Center
Wed 03:28:12 PM 38.9864 -83.6144 224° Southwest 157 181 8,100 -48 Level Indianapolis Center
Wed 03:29:14 PM 38.9478 -83.6592 222° Southwest 158 182 8,000  Descending Indianapolis Center
Wed 03:30:16 PM 38.9144 -83.6972 222° Southwest 158 182 8,100 48 Climbing Indianapolis Center
Wed 03:31:18 PM 38.8803 -83.7350 221° Southwest 161 185 8,100  Level Indianapolis Center
Wed 03:32:20 PM 38.8458 -83.7731 221° Southwest 162 186 8,100  Level Indianapolis Center
Wed 03:33:22 PM 38.8117 -83.8114 221° Southwest 163 188 8,100  Level Indianapolis Center
Wed 03:34:24 PM 38.7772 -83.8486 220° Southwest 159 183 8,100 -48 Level Indianapolis Center
Wed 03:35:26 PM 38.7428 -83.8872 221° Southwest 162 186 8,000  Descending Indianapolis Center
Wed 03:36:28 PM 38.7042 -83.9339 223° Southwest 162 186 8,100  Climbing Indianapolis Center
Wed 03:37:30 PM 38.6706 -83.9733 223° Southwest 162 186 8,000  Descending Indianapolis Center
Wed 03:38:33 PM 38.6356 -84.0144 223° Southwest 161 185 8,100 48 Climbing Indianapolis Center
Wed 03:39:35 PM 38.6025 -84.0522 222° Southwest 158 182 8,100  Level Indianapolis Center
Wed 03:40:37 PM 38.5681 -84.0864 218° Southwest 158 182 8,100  Level Indianapolis Center
Wed 03:41:39 PM 38.5331 -84.1236 220° Southwest 160 184 8,100  Level Indianapolis Center
Wed 03:42:41 PM 38.4986 -84.1597 219° Southwest 161 185 8,100  Level Indianapolis Center
Wed 03:43:43 PM 38.4639 -84.1972 220° Southwest 162 186 8,100  Level Indianapolis Center
Wed 03:44:45 PM 38.4233 -84.2389 219° Southwest 160 184 8,100  Level Indianapolis Center
Wed 03:45:47 PM 38.3886 -84.2767 220° Southwest 163 188 8,100  Level Indianapolis Center
Wed 03:46:49 PM 38.3542 -84.3136 220° Southwest 163 188 8,100 -242 Level Indianapolis Center
Wed 03:47:51 PM 38.3189 -84.3497 219° Southwest 161 185 7,600 -581 Descending Indianapolis Center
Wed 03:48:53 PM 38.2869 -84.3989 230° Southwest 170 196 6,900 -629 Descending Indianapolis Center
Wed 03:49:55 PM 38.2525 -84.4639 236° Southwest 182 209 6,300 -726 Descending Indianapolis Center
Wed 03:50:57 PM 38.2211 -84.5186 234° Southwest 186 214 5,400 -823 Descending Indianapolis Center
Wed 03:51:59 PM 38.1844 -84.5644 225° Southwest 186 214 4,600 -677 Descending Indianapolis Center
Wed 03:53:01 PM 38.1469 -84.6069 222° Southwest 184 212 4,000 -242 Descending Indianapolis Center
Wed 03:54:03 PM 38.1150 -84.6458 224° Southwest 177 204 4,100 -290 Climbing Indianapolis Center
Wed 03:55:05 PM 38.0803 -84.6856 222° Southwest 162 186 3,400 -484 Descending Indianapolis Center
Wed 03:56:07 PM 38.0508 -84.7117 215° Southwest 159 183 3,100 -290 Descending Indianapolis Center
Wed 03:58:00 PM 38.0371 -84.6113 218° Southwest  Level Estimated
Wed 04:05:00 PM 38.0368 -84.6086 218° Southwest  Level Estimated

Login

Don't have an account? Register now (free) for customized features, flight alerts, and more!